sensor_id;sensor_type;location;lat;lon;timestamp;P1;durP1;ratioP1;P2;durP2;ratioP2
6551;SDS011;3309;48.708;9.290;2023-03-19T00:00:53;0.50;;;0.50;;
6551;SDS011;3309;48.708;9.290;2023-03-19T00:03:19;0.70;;;0.70;;
6551;SDS011;3309;48.708;9.290;2023-03-19T00:05:51;0.53;;;0.53;;
6551;SDS011;3309;48.708;9.290;2023-03-19T00:08:18;0.70;;;0.70;;
6551;SDS011;3309;48.708;9.290;2023-03-19T00:10:44;0.60;;;0.60;;
6551;SDS011;3309;48.708;9.290;2023-03-19T00:13:10;0.70;;;0.70;;
6551;SDS011;3309;48.708;9.290;2023-03-19T00:15:36;0.57;;;0.57;;
6551;SDS011;3309;48.708;9.290;2023-03-19T00:18:02;0.60;;;0.60;;
6551;SDS011;3309;48.708;9.290;2023-03-19T00:20:30;0.70;;;0.70;;
6551;SDS011;3309;48.708;9.290;2023-03-19T00:22:56;0.60;;;0.60;;
6551;SDS011;3309;48.708;9.290;2023-03-19T00:25:22;0.50;;;0.50;;
6551;SDS011;3309;48.708;9.290;2023-03-19T00:27:48;0.60;;;0.60;;
6551;SDS011;3309;48.708;9.290;2023-03-19T00:30:14;0.50;;;0.50;;
6551;SDS011;3309;48.708;9.290;2023-03-19T00:32:40;0.60;;;0.60;;
6551;SDS011;3309;48.708;9.290;2023-03-19T00:35:06;0.60;;;0.60;;
6551;SDS011;3309;48.708;9.290;2023-03-19T00:37:35;0.60;;;0.60;;
6551;SDS011;3309;48.708;9.290;2023-03-19T00:40:02;0.60;;;0.60;;
6551;SDS011;3309;48.708;9.290;2023-03-19T00:42:29;0.60;;;0.60;;
6551;SDS011;3309;48.708;9.290;2023-03-19T00:44:55;0.60;;;0.60;;
6551;SDS011;3309;48.708;9.290;2023-03-19T00:47:22;0.60;;;0.60;;
6551;SDS011;3309;48.708;9.290;2023-03-19T00:49:48;0.60;;;0.60;;
6551;SDS011;3309;48.708;9.290;2023-03-19T00:52:14;0.70;;;0.70;;
6551;SDS011;3309;48.708;9.290;2023-03-19T00:54:40;0.60;;;0.60;;
6551;SDS011;3309;48.708;9.290;2023-03-19T00:57:06;0.60;;;0.60;;
6551;SDS011;3309;48.708;9.290;2023-03-19T00:59:32;0.50;;;0.50;;
6551;SDS011;3309;48.708;9.290;2023-03-19T01:01:58;0.53;;;0.53;;
6551;SDS011;3309;48.708;9.290;2023-03-19T01:04:24;0.60;;;0.60;;
6551;SDS011;3309;48.708;9.290;2023-03-19T01:06:50;0.60;;;0.60;;
6551;SDS011;3309;48.708;9.290;2023-03-19T01:09:16;0.60;;;0.60;;
6551;SDS011;3309;48.708;9.290;2023-03-19T01:11:42;0.60;;;0.60;;
6551;SDS011;3309;48.708;9.290;2023-03-19T01:14:08;0.60;;;0.60;;
6551;SDS011;3309;48.708;9.290;2023-03-19T01:16:35;0.57;;;0.57;;
6551;SDS011;3309;48.708;9.290;2023-03-19T01:19:01;0.50;;;0.50;;
6551;SDS011;3309;48.708;9.290;2023-03-19T01:21:27;0.50;;;0.50;;
6551;SDS011;3309;48.708;9.290;2023-03-19T01:23:55;0.50;;;0.50;;
6551;SDS011;3309;48.708;9.290;2023-03-19T01:26:21;0.60;;;0.60;;
6551;SDS011;3309;48.708;9.290;2023-03-19T01:28:48;0.60;;;0.60;;
6551;SDS011;3309;48.708;9.290;2023-03-19T01:31:14;0.50;;;0.50;;
6551;SDS011;3309;48.708;9.290;2023-03-19T01:33:40;0.60;;;0.60;;
6551;SDS011;3309;48.708;9.290;2023-03-19T01:36:06;0.60;;;0.60;;
6551;SDS011;3309;48.708;9.290;2023-03-19T01:38:33;0.60;;;0.60;;
6551;SDS011;3309;48.708;9.290;2023-03-19T01:40:59;0.40;;;0.40;;
6551;SDS011;3309;48.708;9.290;2023-03-19T01:43:29;0.53;;;0.53;;
6551;SDS011;3309;48.708;9.290;2023-03-19T01:46:00;0.60;;;0.60;;
6551;SDS011;3309;48.708;9.290;2023-03-19T01:50:59;0.50;;;0.50;;
6551;SDS011;3309;48.708;9.290;2023-03-19T01:53:27;0.70;;;0.70;;
6551;SDS011;3309;48.708;9.290;2023-03-19T01:55:56;0.60;;;0.60;;
6551;SDS011;3309;48.708;9.290;2023-03-19T01:58:24;0.67;;;0.67;;
6551;SDS011;3309;48.708;9.290;2023-03-19T02:00:50;0.70;;;0.70;;
6551;SDS011;3309;48.708;9.290;2023-03-19T02:03:16;0.60;;;0.60;;
6551;SDS011;3309;48.708;9.290;2023-03-19T02:05:43;0.57;;;0.57;;
6551;SDS011;3309;48.708;9.290;2023-03-19T02:08:10;0.60;;;0.60;;
6551;SDS011;3309;48.708;9.290;2023-03-19T02:10:37;0.60;;;0.60;;
6551;SDS011;3309;48.708;9.290;2023-03-19T02:13:03;0.67;;;0.67;;
6551;SDS011;3309;48.708;9.290;2023-03-19T02:15:30;0.53;;;0.53;;
6551;SDS011;3309;48.708;9.290;2023-03-19T02:17:56;0.60;;;0.60;;
6551;SDS011;3309;48.708;9.290;2023-03-19T02:20:36;0.60;;;0.60;;
6551;SDS011;3309;48.708;9.290;2023-03-19T02:28:12;0.50;;;0.50;;
6551;SDS011;3309;48.708;9.290;2023-03-19T02:30:40;0.60;;;0.60;;
6551;SDS011;3309;48.708;9.290;2023-03-19T02:33:08;0.50;;;0.50;;
6551;SDS011;3309;48.708;9.290;2023-03-19T02:35:34;0.60;;;0.60;;
6551;SDS011;3309;48.708;9.290;2023-03-19T02:38:01;0.57;;;0.57;;
6551;SDS011;3309;48.708;9.290;2023-03-19T02:40:28;0.70;;;0.70;;
6551;SDS011;3309;48.708;9.290;2023-03-19T02:42:55;0.50;;;0.50;;
6551;SDS011;3309;48.708;9.290;2023-03-19T02:45:22;0.60;;;0.60;;
6551;SDS011;3309;48.708;9.290;2023-03-19T02:47:48;0.60;;;0.60;;
6551;SDS011;3309;48.708;9.290;2023-03-19T02:50:14;0.60;;;0.60;;
6551;SDS011;3309;48.708;9.290;2023-03-19T02:52:40;0.50;;;0.50;;
6551;SDS011;3309;48.708;9.290;2023-03-19T02:55:06;0.60;;;0.60;;
6551;SDS011;3309;48.708;9.290;2023-03-19T02:57:33;0.50;;;0.50;;
6551;SDS011;3309;48.708;9.290;2023-03-19T02:59:59;0.70;;;0.70;;
6551;SDS011;3309;48.708;9.290;2023-03-19T03:02:25;0.53;;;0.53;;
6551;SDS011;3309;48.708;9.290;2023-03-19T03:04:51;0.67;;;0.67;;
6551;SDS011;3309;48.708;9.290;2023-03-19T03:07:17;0.60;;;0.60;;
6551;SDS011;3309;48.708;9.290;2023-03-19T03:09:43;0.60;;;0.60;;
6551;SDS011;3309;48.708;9.290;2023-03-19T03:12:09;0.60;;;0.60;;
6551;SDS011;3309;48.708;9.290;2023-03-19T03:14:36;0.70;;;0.70;;
6551;SDS011;3309;48.708;9.290;2023-03-19T03:17:02;0.50;;;0.50;;
6551;SDS011;3309;48.708;9.290;2023-03-19T03:19:28;0.50;;;0.50;;
6551;SDS011;3309;48.708;9.290;2023-03-19T03:21:54;0.60;;;0.60;;
6551;SDS011;3309;48.708;9.290;2023-03-19T03:24:20;0.60;;;0.60;;
6551;SDS011;3309;48.708;9.290;2023-03-19T03:26:46;0.50;;;0.50;;
6551;SDS011;3309;48.708;9.290;2023-03-19T03:29:12;0.60;;;0.60;;
6551;SDS011;3309;48.708;9.290;2023-03-19T03:31:38;0.60;;;0.60;;
6551;SDS011;3309;48.708;9.290;2023-03-19T03:34:04;0.57;;;0.57;;
6551;SDS011;3309;48.708;9.290;2023-03-19T03:36:31;0.67;;;0.67;;
6551;SDS011;3309;48.708;9.290;2023-03-19T03:38:57;0.50;;;0.50;;
6551;SDS011;3309;48.708;9.290;2023-03-19T03:41:24;0.67;;;0.67;;
6551;SDS011;3309;48.708;9.290;2023-03-19T03:43:50;0.50;;;0.50;;
6551;SDS011;3309;48.708;9.290;2023-03-19T03:46:16;0.63;;;0.63;;
6551;SDS011;3309;48.708;9.290;2023-03-19T03:48:42;0.50;;;0.50;;
6551;SDS011;3309;48.708;9.290;2023-03-19T03:51:08;0.60;;;0.60;;
6551;SDS011;3309;48.708;9.290;2023-03-19T03:53:35;0.60;;;0.60;;
6551;SDS011;3309;48.708;9.290;2023-03-19T03:56:01;0.60;;;0.60;;
6551;SDS011;3309;48.708;9.290;2023-03-19T03:58:27;0.57;;;0.57;;
6551;SDS011;3309;48.708;9.290;2023-03-19T04:00:54;0.60;;;0.60;;
6551;SDS011;3309;48.708;9.290;2023-03-19T04:03:20;0.50;;;0.50;;
6551;SDS011;3309;48.708;9.290;2023-03-19T04:05:48;0.60;;;0.60;;
6551;SDS011;3309;48.708;9.290;2023-03-19T04:08:14;0.50;;;0.50;;
6551;SDS011;3309;48.708;9.290;2023-03-19T04:10:40;0.63;;;0.63;;
6551;SDS011;3309;48.708;9.290;2023-03-19T04:13:07;0.60;;;0.60;;
6551;SDS011;3309;48.708;9.290;2023-03-19T04:15:33;0.67;;;0.67;;
6551;SDS011;3309;48.708;9.290;2023-03-19T04:17:59;0.50;;;0.50;;
6551;SDS011;3309;48.708;9.290;2023-03-19T04:20:25;0.60;;;0.60;;
6551;SDS011;3309;48.708;9.290;2023-03-19T04:22:51;0.60;;;0.60;;
6551;SDS011;3309;48.708;9.290;2023-03-19T04:25:17;0.70;;;0.70;;
6551;SDS011;3309;48.708;9.290;2023-03-19T04:27:44;0.60;;;0.60;;
6551;SDS011;3309;48.708;9.290;2023-03-19T04:30:10;0.60;;;0.60;;
6551;SDS011;3309;48.708;9.290;2023-03-19T04:32:36;0.70;;;0.70;;
6551;SDS011;3309;48.708;9.290;2023-03-19T04:35:02;0.50;;;0.50;;
6551;SDS011;3309;48.708;9.290;2023-03-19T04:37:28;0.50;;;0.50;;
6551;SDS011;3309;48.708;9.290;2023-03-19T04:39:55;0.60;;;0.60;;
6551;SDS011;3309;48.708;9.290;2023-03-19T04:42:21;0.53;;;0.53;;
6551;SDS011;3309;48.708;9.290;2023-03-19T04:44:47;0.67;;;0.67;;
6551;SDS011;3309;48.708;9.290;2023-03-19T04:47:13;0.50;;;0.50;;
6551;SDS011;3309;48.708;9.290;2023-03-19T04:49:39;0.60;;;0.60;;
6551;SDS011;3309;48.708;9.290;2023-03-19T04:52:06;0.53;;;0.53;;
6551;SDS011;3309;48.708;9.290;2023-03-19T04:54:33;0.60;;;0.60;;
6551;SDS011;3309;48.708;9.290;2023-03-19T04:56:59;0.63;;;0.63;;
6551;SDS011;3309;48.708;9.290;2023-03-19T04:59:25;0.60;;;0.60;;
6551;SDS011;3309;48.708;9.290;2023-03-19T05:01:51;0.60;;;0.60;;
6551;SDS011;3309;48.708;9.290;2023-03-19T05:04:17;0.60;;;0.60;;
6551;SDS011;3309;48.708;9.290;2023-03-19T05:06:43;0.60;;;0.60;;
6551;SDS011;3309;48.708;9.290;2023-03-19T05:09:09;0.70;;;0.70;;
6551;SDS011;3309;48.708;9.290;2023-03-19T05:11:35;0.60;;;0.60;;
6551;SDS011;3309;48.708;9.290;2023-03-19T05:14:01;0.60;;;0.60;;
6551;SDS011;3309;48.708;9.290;2023-03-19T05:16:27;0.60;;;0.60;;
6551;SDS011;3309;48.708;9.290;2023-03-19T05:18:53;0.70;;;0.70;;
6551;SDS011;3309;48.708;9.290;2023-03-19T05:21:19;0.67;;;0.67;;
6551;SDS011;3309;48.708;9.290;2023-03-19T05:23:46;0.70;;;0.70;;
6551;SDS011;3309;48.708;9.290;2023-03-19T05:26:16;0.57;;;0.57;;
6551;SDS011;3309;48.708;9.290;2023-03-19T05:28:42;0.70;;;0.70;;
6551;SDS011;3309;48.708;9.290;2023-03-19T05:31:08;0.50;;;0.50;;
6551;SDS011;3309;48.708;9.290;2023-03-19T05:33:34;0.70;;;0.70;;
6551;SDS011;3309;48.708;9.290;2023-03-19T05:36:00;0.60;;;0.60;;
6551;SDS011;3309;48.708;9.290;2023-03-19T05:38:27;0.70;;;0.70;;
6551;SDS011;3309;48.708;9.290;2023-03-19T05:40:53;0.70;;;0.70;;
6551;SDS011;3309;48.708;9.290;2023-03-19T05:43:19;0.60;;;0.60;;
6551;SDS011;3309;48.708;9.290;2023-03-19T05:45:48;0.70;;;0.70;;
6551;SDS011;3309;48.708;9.290;2023-03-19T05:48:15;0.60;;;0.60;;
6551;SDS011;3309;48.708;9.290;2023-03-19T05:50:41;0.67;;;0.67;;
6551;SDS011;3309;48.708;9.290;2023-03-19T05:53:07;0.60;;;0.60;;
6551;SDS011;3309;48.708;9.290;2023-03-19T05:55:33;0.50;;;0.50;;
6551;SDS011;3309;48.708;9.290;2023-03-19T05:57:59;0.60;;;0.60;;
6551;SDS011;3309;48.708;9.290;2023-03-19T06:00:25;0.53;;;0.53;;
6551;SDS011;3309;48.708;9.290;2023-03-19T06:02:51;0.67;;;0.67;;
6551;SDS011;3309;48.708;9.290;2023-03-19T06:05:18;0.60;;;0.60;;
6551;SDS011;3309;48.708;9.290;2023-03-19T06:07:45;0.57;;;0.57;;
6551;SDS011;3309;48.708;9.290;2023-03-19T06:10:11;0.60;;;0.60;;
6551;SDS011;3309;48.708;9.290;2023-03-19T06:12:37;0.60;;;0.60;;
6551;SDS011;3309;48.708;9.290;2023-03-19T06:15:03;0.60;;;0.60;;
6551;SDS011;3309;48.708;9.290;2023-03-19T06:17:29;0.70;;;0.70;;
6551;SDS011;3309;48.708;9.290;2023-03-19T06:19:55;0.70;;;0.70;;
6551;SDS011;3309;48.708;9.290;2023-03-19T06:22:21;0.60;;;0.60;;
6551;SDS011;3309;48.708;9.290;2023-03-19T06:24:47;0.67;;;0.67;;
6551;SDS011;3309;48.708;9.290;2023-03-19T06:27:13;0.60;;;0.60;;
6551;SDS011;3309;48.708;9.290;2023-03-19T06:29:39;0.50;;;0.50;;
6551;SDS011;3309;48.708;9.290;2023-03-19T06:32:05;0.60;;;0.60;;
6551;SDS011;3309;48.708;9.290;2023-03-19T06:34:31;0.50;;;0.50;;
6551;SDS011;3309;48.708;9.290;2023-03-19T06:36:57;0.63;;;0.63;;
6551;SDS011;3309;48.708;9.290;2023-03-19T06:39:23;0.60;;;0.60;;
6551;SDS011;3309;48.708;9.290;2023-03-19T06:41:49;0.60;;;0.60;;
6551;SDS011;3309;48.708;9.290;2023-03-19T06:44:16;0.50;;;0.50;;
6551;SDS011;3309;48.708;9.290;2023-03-19T06:46:42;0.60;;;0.60;;
6551;SDS011;3309;48.708;9.290;2023-03-19T06:49:08;0.60;;;0.60;;
6551;SDS011;3309;48.708;9.290;2023-03-19T06:51:34;0.60;;;0.60;;
6551;SDS011;3309;48.708;9.290;2023-03-19T06:54:00;0.50;;;0.50;;
6551;SDS011;3309;48.708;9.290;2023-03-19T06:56:26;0.50;;;0.50;;
6551;SDS011;3309;48.708;9.290;2023-03-19T06:58:53;0.50;;;0.50;;
6551;SDS011;3309;48.708;9.290;2023-03-19T07:01:19;0.60;;;0.60;;
6551;SDS011;3309;48.708;9.290;2023-03-19T07:03:45;0.60;;;0.60;;
6551;SDS011;3309;48.708;9.290;2023-03-19T07:06:11;0.63;;;0.63;;
6551;SDS011;3309;48.708;9.290;2023-03-19T07:08:38;0.60;;;0.60;;
6551;SDS011;3309;48.708;9.290;2023-03-19T07:11:05;0.50;;;0.50;;
6551;SDS011;3309;48.708;9.290;2023-03-19T07:13:32;0.60;;;0.60;;
6551;SDS011;3309;48.708;9.290;2023-03-19T07:15:58;0.60;;;0.60;;
6551;SDS011;3309;48.708;9.290;2023-03-19T07:18:24;0.70;;;0.70;;
6551;SDS011;3309;48.708;9.290;2023-03-19T07:20:51;0.60;;;0.60;;
6551;SDS011;3309;48.708;9.290;2023-03-19T07:23:17;0.60;;;0.60;;
6551;SDS011;3309;48.708;9.290;2023-03-19T07:25:43;0.70;;;0.70;;
6551;SDS011;3309;48.708;9.290;2023-03-19T07:28:09;0.50;;;0.50;;
6551;SDS011;3309;48.708;9.290;2023-03-19T07:30:35;0.50;;;0.50;;
6551;SDS011;3309;48.708;9.290;2023-03-19T07:33:02;0.70;;;0.70;;
6551;SDS011;3309;48.708;9.290;2023-03-19T07:35:28;0.60;;;0.60;;
6551;SDS011;3309;48.708;9.290;2023-03-19T07:37:54;0.60;;;0.60;;
6551;SDS011;3309;48.708;9.290;2023-03-19T07:40:20;0.60;;;0.60;;
6551;SDS011;3309;48.708;9.290;2023-03-19T07:42:46;0.70;;;0.70;;
6551;SDS011;3309;48.708;9.290;2023-03-19T07:45:12;0.60;;;0.60;;
6551;SDS011;3309;48.708;9.290;2023-03-19T07:47:38;0.70;;;0.70;;
6551;SDS011;3309;48.708;9.290;2023-03-19T07:50:05;0.70;;;0.70;;
6551;SDS011;3309;48.708;9.290;2023-03-19T07:52:31;0.60;;;0.60;;
6551;SDS011;3309;48.708;9.290;2023-03-19T07:54:57;0.63;;;0.63;;
6551;SDS011;3309;48.708;9.290;2023-03-19T07:57:23;0.50;;;0.50;;
6551;SDS011;3309;48.708;9.290;2023-03-19T07:59:50;0.60;;;0.60;;
6551;SDS011;3309;48.708;9.290;2023-03-19T08:02:16;0.50;;;0.50;;
6551;SDS011;3309;48.708;9.290;2023-03-19T08:04:42;0.50;;;0.50;;
6551;SDS011;3309;48.708;9.290;2023-03-19T08:07:08;0.60;;;0.60;;
6551;SDS011;3309;48.708;9.290;2023-03-19T08:09:35;0.70;;;0.70;;
6551;SDS011;3309;48.708;9.290;2023-03-19T08:12:01;0.60;;;0.60;;
6551;SDS011;3309;48.708;9.290;2023-03-19T08:14:27;0.60;;;0.60;;
6551;SDS011;3309;48.708;9.290;2023-03-19T08:16:53;0.60;;;0.60;;
6551;SDS011;3309;48.708;9.290;2023-03-19T08:19:19;0.70;;;0.70;;
6551;SDS011;3309;48.708;9.290;2023-03-19T08:21:46;0.70;;;0.70;;
6551;SDS011;3309;48.708;9.290;2023-03-19T08:24:12;0.60;;;0.60;;
6551;SDS011;3309;48.708;9.290;2023-03-19T08:26:38;0.50;;;0.50;;
6551;SDS011;3309;48.708;9.290;2023-03-19T08:29:04;0.70;;;0.70;;
6551;SDS011;3309;48.708;9.290;2023-03-19T08:31:30;0.60;;;0.60;;
6551;SDS011;3309;48.708;9.290;2023-03-19T08:33:56;0.60;;;0.60;;
6551;SDS011;3309;48.708;9.290;2023-03-19T08:36:28;0.60;;;0.60;;
6551;SDS011;3309;48.708;9.290;2023-03-19T08:38:54;0.57;;;0.57;;
6551;SDS011;3309;48.708;9.290;2023-03-19T08:41:21;0.70;;;0.70;;
6551;SDS011;3309;48.708;9.290;2023-03-19T08:43:47;0.60;;;0.60;;
6551;SDS011;3309;48.708;9.290;2023-03-19T08:46:13;0.60;;;0.60;;
6551;SDS011;3309;48.708;9.290;2023-03-19T08:48:40;0.60;;;0.60;;
6551;SDS011;3309;48.708;9.290;2023-03-19T08:51:06;0.40;;;0.40;;
6551;SDS011;3309;48.708;9.290;2023-03-19T08:53:33;0.60;;;0.60;;
6551;SDS011;3309;48.708;9.290;2023-03-19T08:56:00;0.50;;;0.50;;
6551;SDS011;3309;48.708;9.290;2023-03-19T08:58:26;0.70;;;0.70;;
6551;SDS011;3309;48.708;9.290;2023-03-19T09:00:53;0.60;;;0.60;;
6551;SDS011;3309;48.708;9.290;2023-03-19T09:03:25;0.60;;;0.60;;
6551;SDS011;3309;48.708;9.290;2023-03-19T09:05:51;0.70;;;0.70;;
6551;SDS011;3309;48.708;9.290;2023-03-19T09:08:17;0.70;;;0.70;;
6551;SDS011;3309;48.708;9.290;2023-03-19T09:10:43;0.50;;;0.50;;
6551;SDS011;3309;48.708;9.290;2023-03-19T09:13:09;0.70;;;0.70;;
6551;SDS011;3309;48.708;9.290;2023-03-19T09:15:35;0.50;;;0.50;;
6551;SDS011;3309;48.708;9.290;2023-03-19T09:18:01;0.70;;;0.70;;
6551;SDS011;3309;48.708;9.290;2023-03-19T09:20:27;0.60;;;0.60;;
6551;SDS011;3309;48.708;9.290;2023-03-19T09:22:53;0.50;;;0.50;;
6551;SDS011;3309;48.708;9.290;2023-03-19T09:25:19;0.60;;;0.60;;
6551;SDS011;3309;48.708;9.290;2023-03-19T09:27:45;0.53;;;0.53;;
6551;SDS011;3309;48.708;9.290;2023-03-19T09:30:11;0.70;;;0.70;;
6551;SDS011;3309;48.708;9.290;2023-03-19T09:32:37;0.50;;;0.50;;
6551;SDS011;3309;48.708;9.290;2023-03-19T09:35:04;0.60;;;0.60;;
6551;SDS011;3309;48.708;9.290;2023-03-19T09:37:30;0.60;;;0.60;;
6551;SDS011;3309;48.708;9.290;2023-03-19T09:39:56;0.50;;;0.50;;
6551;SDS011;3309;48.708;9.290;2023-03-19T09:45:10;0.57;;;0.57;;
6551;SDS011;3309;48.708;9.290;2023-03-19T09:47:37;0.43;;;0.43;;
6551;SDS011;3309;48.708;9.290;2023-03-19T09:50:15;0.30;;;0.30;;
6551;SDS011;3309;48.708;9.290;2023-03-19T09:52:45;0.30;;;0.30;;
6551;SDS011;3309;48.708;9.290;2023-03-19T09:57:38;0.20;;;0.20;;
6551;SDS011;3309;48.708;9.290;2023-03-19T10:00:09;0.30;;;0.30;;
6551;SDS011;3309;48.708;9.290;2023-03-19T10:02:40;0.40;;;0.40;;
6551;SDS011;3309;48.708;9.290;2023-03-19T10:10:09;0.40;;;0.40;;
6551;SDS011;3309;48.708;9.290;2023-03-19T10:15:13;0.33;;;0.33;;
6551;SDS011;3309;48.708;9.290;2023-03-19T10:17:48;0.47;;;0.47;;
6551;SDS011;3309;48.708;9.290;2023-03-19T10:22:44;0.47;;;0.47;;
6551;SDS011;3309;48.708;9.290;2023-03-19T10:25:12;0.30;;;0.30;;
6551;SDS011;3309;48.708;9.290;2023-03-19T10:27:42;0.40;;;0.40;;
6551;SDS011;3309;48.708;9.290;2023-03-19T10:30:16;0.40;;;0.40;;
6551;SDS011;3309;48.708;9.290;2023-03-19T10:32:43;0.30;;;0.30;;
6551;SDS011;3309;48.708;9.290;2023-03-19T10:35:18;0.30;;;0.30;;
6551;SDS011;3309;48.708;9.290;2023-03-19T10:37:44;0.20;;;0.20;;
6551;SDS011;3309;48.708;9.290;2023-03-19T10:40:16;0.27;;;0.27;;
6551;SDS011;3309;48.708;9.290;2023-03-19T10:42:52;0.37;;;0.37;;
6551;SDS011;3309;48.708;9.290;2023-03-19T10:45:30;0.30;;;0.30;;
6551;SDS011;3309;48.708;9.290;2023-03-19T10:47:57;0.30;;;0.30;;
6551;SDS011;3309;48.708;9.290;2023-03-19T10:53:34;0.30;;;0.30;;
6551;SDS011;3309;48.708;9.290;2023-03-19T10:56:05;0.30;;;0.30;;
6551;SDS011;3309;48.708;9.290;2023-03-19T10:58:35;0.30;;;0.30;;
6551;SDS011;3309;48.708;9.290;2023-03-19T11:01:06;0.30;;;0.30;;
6551;SDS011;3309;48.708;9.290;2023-03-19T11:03:36;0.30;;;0.30;;
6551;SDS011;3309;48.708;9.290;2023-03-19T11:06:11;0.20;;;0.20;;
6551;SDS011;3309;48.708;9.290;2023-03-19T11:08:41;0.23;;;0.23;;
6551;SDS011;3309;48.708;9.290;2023-03-19T11:11:21;0.40;;;0.40;;
6551;SDS011;3309;48.708;9.290;2023-03-19T11:13:48;0.30;;;0.30;;
6551;SDS011;3309;48.708;9.290;2023-03-19T11:16:14;0.33;;;0.33;;
6551;SDS011;3309;48.708;9.290;2023-03-19T11:18:40;0.40;;;0.40;;
6551;SDS011;3309;48.708;9.290;2023-03-19T11:21:13;0.40;;;0.40;;
6551;SDS011;3309;48.708;9.290;2023-03-19T11:23:45;0.30;;;0.30;;
6551;SDS011;3309;48.708;9.290;2023-03-19T11:26:19;0.40;;;0.40;;
6551;SDS011;3309;48.708;9.290;2023-03-19T11:28:51;0.33;;;0.33;;
6551;SDS011;3309;48.708;9.290;2023-03-19T11:31:25;0.30;;;0.30;;
6551;SDS011;3309;48.708;9.290;2023-03-19T11:44:15;0.33;;;0.33;;
6551;SDS011;3309;48.708;9.290;2023-03-19T11:46:46;0.30;;;0.30;;
6551;SDS011;3309;48.708;9.290;2023-03-19T11:54:39;0.30;;;0.30;;
6551;SDS011;3309;48.708;9.290;2023-03-19T12:05:31;0.40;;;0.40;;
6551;SDS011;3309;48.708;9.290;2023-03-19T12:08:02;0.27;;;0.27;;
6551;SDS011;3309;48.708;9.290;2023-03-19T12:15:48;0.30;;;0.30;;
6551;SDS011;3309;48.708;9.290;2023-03-19T12:21:05;0.20;;;0.20;;
6551;SDS011;3309;48.708;9.290;2023-03-19T12:26:04;0.30;;;0.30;;
6551;SDS011;3309;48.708;9.290;2023-03-19T12:28:34;0.30;;;0.30;;
6551;SDS011;3309;48.708;9.290;2023-03-19T12:33:56;0.20;;;0.20;;
6551;SDS011;3309;48.708;9.290;2023-03-19T12:36:30;0.30;;;0.30;;
6551;SDS011;3309;48.708;9.290;2023-03-19T12:38:58;0.33;;;0.33;;
6551;SDS011;3309;48.708;9.290;2023-03-19T12:41:28;0.30;;;0.30;;
6551;SDS011;3309;48.708;9.290;2023-03-19T12:44:18;0.30;;;0.30;;
6551;SDS011;3309;48.708;9.290;2023-03-19T12:46:43;0.40;;;0.40;;
6551;SDS011;3309;48.708;9.290;2023-03-19T12:49:22;0.30;;;0.30;;
6551;SDS011;3309;48.708;9.290;2023-03-19T12:52:01;0.30;;;0.30;;
6551;SDS011;3309;48.708;9.290;2023-03-19T12:54:30;0.30;;;0.30;;
6551;SDS011;3309;48.708;9.290;2023-03-19T13:01:52;0.30;;;0.30;;
6551;SDS011;3309;48.708;9.290;2023-03-19T13:04:23;0.30;;;0.30;;
6551;SDS011;3309;48.708;9.290;2023-03-19T13:09:37;0.30;;;0.30;;
6551;SDS011;3309;48.708;9.290;2023-03-19T13:12:09;0.30;;;0.30;;
6551;SDS011;3309;48.708;9.290;2023-03-19T13:22:10;0.30;;;0.30;;
6551;SDS011;3309;48.708;9.290;2023-03-19T13:24:38;0.30;;;0.30;;
6551;SDS011;3309;48.708;9.290;2023-03-19T13:27:06;0.30;;;0.30;;
6551;SDS011;3309;48.708;9.290;2023-03-19T13:29:33;0.30;;;0.30;;
6551;SDS011;3309;48.708;9.290;2023-03-19T13:32:03;0.30;;;0.30;;
6551;SDS011;3309;48.708;9.290;2023-03-19T13:34:31;0.30;;;0.30;;
6551;SDS011;3309;48.708;9.290;2023-03-19T13:39:33;0.40;;;0.40;;
6551;SDS011;3309;48.708;9.290;2023-03-19T13:44:48;0.50;;;0.50;;
6551;SDS011;3309;48.708;9.290;2023-03-19T13:54:52;0.30;;;0.30;;
6551;SDS011;3309;48.708;9.290;2023-03-19T13:57:32;0.40;;;0.40;;
6551;SDS011;3309;48.708;9.290;2023-03-19T13:59:58;0.40;;;0.40;;
6551;SDS011;3309;48.708;9.290;2023-03-19T14:02:45;0.50;;;0.50;;
6551;SDS011;3309;48.708;9.290;2023-03-19T14:05:18;0.30;;;0.30;;
6551;SDS011;3309;48.708;9.290;2023-03-19T14:07:52;0.40;;;0.40;;
6551;SDS011;3309;48.708;9.290;2023-03-19T14:12:44;0.30;;;0.30;;
6551;SDS011;3309;48.708;9.290;2023-03-19T14:15:15;0.33;;;0.33;;
6551;SDS011;3309;48.708;9.290;2023-03-19T14:17:44;0.30;;;0.30;;
6551;SDS011;3309;48.708;9.290;2023-03-19T14:25:16;0.40;;;0.40;;
6551;SDS011;3309;48.708;9.290;2023-03-19T14:27:45;0.40;;;0.40;;
6551;SDS011;3309;48.708;9.290;2023-03-19T14:30:54;0.30;;;0.30;;
6551;SDS011;3309;48.708;9.290;2023-03-19T14:33:04;0.43;;;0.43;;
6551;SDS011;3309;48.708;9.290;2023-03-19T14:35:34;0.40;;;0.40;;
6551;SDS011;3309;48.708;9.290;2023-03-19T14:38:01;0.30;;;0.30;;
6551;SDS011;3309;48.708;9.290;2023-03-19T14:40:49;0.40;;;0.40;;
6551;SDS011;3309;48.708;9.290;2023-03-19T14:45:44;0.30;;;0.30;;
6551;SDS011;3309;48.708;9.290;2023-03-19T14:48:23;0.50;;;0.50;;
6551;SDS011;3309;48.708;9.290;2023-03-19T14:53:23;0.50;;;0.50;;
6551;SDS011;3309;48.708;9.290;2023-03-19T14:55:51;0.40;;;0.40;;
6551;SDS011;3309;48.708;9.290;2023-03-19T14:58:20;0.40;;;0.40;;
6551;SDS011;3309;48.708;9.290;2023-03-19T15:00:50;0.40;;;0.40;;
6551;SDS011;3309;48.708;9.290;2023-03-19T15:03:31;0.40;;;0.40;;
6551;SDS011;3309;48.708;9.290;2023-03-19T15:05:59;0.40;;;0.40;;
6551;SDS011;3309;48.708;9.290;2023-03-19T15:08:26;0.50;;;0.50;;
6551;SDS011;3309;48.708;9.290;2023-03-19T15:18:36;0.50;;;0.50;;
6551;SDS011;3309;48.708;9.290;2023-03-19T15:21:02;0.30;;;0.30;;
6551;SDS011;3309;48.708;9.290;2023-03-19T15:23:29;0.40;;;0.40;;
6551;SDS011;3309;48.708;9.290;2023-03-19T15:28:22;0.33;;;0.33;;
6551;SDS011;3309;48.708;9.290;2023-03-19T15:31:04;0.40;;;0.40;;
6551;SDS011;3309;48.708;9.290;2023-03-19T15:33:31;0.43;;;0.43;;
6551;SDS011;3309;48.708;9.290;2023-03-19T15:35:59;0.60;;;0.60;;
6551;SDS011;3309;48.708;9.290;2023-03-19T15:38:27;0.50;;;0.50;;
6551;SDS011;3309;48.708;9.290;2023-03-19T15:40:54;0.40;;;0.40;;
6551;SDS011;3309;48.708;9.290;2023-03-19T15:43:20;0.60;;;0.60;;
6551;SDS011;3309;48.708;9.290;2023-03-19T15:45:48;0.50;;;0.50;;
6551;SDS011;3309;48.708;9.290;2023-03-19T15:48:17;0.50;;;0.50;;
6551;SDS011;3309;48.708;9.290;2023-03-19T15:50:45;0.40;;;0.40;;
6551;SDS011;3309;48.708;9.290;2023-03-19T15:53:14;0.50;;;0.50;;
6551;SDS011;3309;48.708;9.290;2023-03-19T15:55:42;0.57;;;0.57;;
6551;SDS011;3309;48.708;9.290;2023-03-19T15:58:11;0.40;;;0.40;;
6551;SDS011;3309;48.708;9.290;2023-03-19T16:00:40;0.57;;;0.57;;
6551;SDS011;3309;48.708;9.290;2023-03-19T16:03:07;0.40;;;0.40;;
6551;SDS011;3309;48.708;9.290;2023-03-19T16:05:40;0.60;;;0.60;;
6551;SDS011;3309;48.708;9.290;2023-03-19T16:08:17;0.50;;;0.50;;
6551;SDS011;3309;48.708;9.290;2023-03-19T16:10:44;0.50;;;0.50;;
6551;SDS011;3309;48.708;9.290;2023-03-19T16:13:31;0.50;;;0.50;;
6551;SDS011;3309;48.708;9.290;2023-03-19T16:16:20;0.50;;;0.50;;
6551;SDS011;3309;48.708;9.290;2023-03-19T16:18:47;0.50;;;0.50;;
6551;SDS011;3309;48.708;9.290;2023-03-19T16:21:24;0.60;;;0.60;;
6551;SDS011;3309;48.708;9.290;2023-03-19T16:26:28;0.50;;;0.50;;
6551;SDS011;3309;48.708;9.290;2023-03-19T16:29:01;0.57;;;0.57;;
6551;SDS011;3309;48.708;9.290;2023-03-19T16:31:28;0.40;;;0.40;;
6551;SDS011;3309;48.708;9.290;2023-03-19T16:33:57;0.50;;;0.50;;
6551;SDS011;3309;48.708;9.290;2023-03-19T16:36:28;0.50;;;0.50;;
6551;SDS011;3309;48.708;9.290;2023-03-19T16:38:56;0.40;;;0.40;;
6551;SDS011;3309;48.708;9.290;2023-03-19T16:41:28;0.50;;;0.50;;
6551;SDS011;3309;48.708;9.290;2023-03-19T16:43:58;0.50;;;0.50;;
6551;SDS011;3309;48.708;9.290;2023-03-19T16:46:25;0.60;;;0.60;;
6551;SDS011;3309;48.708;9.290;2023-03-19T16:48:52;0.50;;;0.50;;
6551;SDS011;3309;48.708;9.290;2023-03-19T16:51:18;0.57;;;0.57;;
6551;SDS011;3309;48.708;9.290;2023-03-19T16:53:46;0.53;;;0.53;;
6551;SDS011;3309;48.708;9.290;2023-03-19T16:56:13;0.40;;;0.40;;
6551;SDS011;3309;48.708;9.290;2023-03-19T16:58:43;0.40;;;0.40;;
6551;SDS011;3309;48.708;9.290;2023-03-19T17:01:11;0.60;;;0.60;;
6551;SDS011;3309;48.708;9.290;2023-03-19T17:03:38;0.60;;;0.60;;
6551;SDS011;3309;48.708;9.290;2023-03-19T17:06:04;0.53;;;0.53;;
6551;SDS011;3309;48.708;9.290;2023-03-19T17:08:30;0.43;;;0.43;;
6551;SDS011;3309;48.708;9.290;2023-03-19T17:10:56;0.60;;;0.60;;
6551;SDS011;3309;48.708;9.290;2023-03-19T17:13:26;0.60;;;0.60;;
6551;SDS011;3309;48.708;9.290;2023-03-19T17:16:03;0.40;;;0.40;;